M I D A S
Marine Information and Data Acquisition System
Tripno 1566 of the Zeeleeuw from 2008-09-15 08:00:00 to 2008-09-15 17:00:00
Back to CruiseResearch ActivitiesStationsMapUnderway DataData graphs

EquipmentUnitsComment
TimeDGPSUTC
LatitudeDGPSDM.mWGS84
LongitudeDGPSDM.mWGS84
HeadingGyrodeg 
SOGDGPSknotsSpeed over ground
COGDGPSdegCourse over ground
DepthEcho soundermeters200 kHz
Missing or incorrect values are displayed as -999
Navigation data collected by the RV Zeeleeuw from 2008-09-15 08:00:00 to 2008-09-15 17:00:00
                                                                                    Next 1000 lines
Time Latitude Longitude Heading SOG COG Depth
2008-09-15 08:00:20 51°21.487 2°48.017 340.8 11.8 331 -999
2008-09-15 08:00:30 51°21.515 2°47.991 340.8 11.8 331 -999
2008-09-15 08:00:40 51°21.544 2°47.967 340.8 11.8 331 -999
2008-09-15 08:00:50 51°21.573 2°47.941 340.8 11.8 331 -999
2008-09-15 08:01:00 51°21.602 2°47.918 340.1 11.8 332 -999
2008-09-15 08:01:10 51°21.63 2°47.894 340.1 11.8 332 -999
2008-09-15 08:01:20 51°21.659 2°47.869 340.1 11.8 332 -999
2008-09-15 08:01:30 51°21.688 2°47.844 340.1 11.8 332 -999
2008-09-15 08:01:40 51°21.716 2°47.82 340.1 11.8 332 -999
2008-09-15 08:01:50 51°21.745 2°47.795 340.1 11.8 332 -999
2008-09-15 08:02:00 51°21.773 2°47.769 338.1 11.69 331 -999
2008-09-15 08:02:10 51°21.802 2°47.743 338.1 11.69 331 -999
2008-09-15 08:02:20 51°21.829 2°47.717 338.1 11.69 331 -999
2008-09-15 08:02:30 51°21.858 2°47.691 338.1 11.69 331 -999
2008-09-15 08:02:40 51°21.886 2°47.665 338.1 11.69 331 -999
2008-09-15 08:02:50 51°21.914 2°47.64 338.1 11.69 331 -999
2008-09-15 08:03:00 51°21.942 2°47.614 338.6 11.69 330 -999
2008-09-15 08:03:10 51°21.971 2°47.588 338.6 11.69 330 -999
2008-09-15 08:03:20 51°21.999 2°47.562 338.6 11.69 330 -999
2008-09-15 08:03:30 51°22.026 2°47.536 338.6 11.69 330 -999
2008-09-15 08:03:40 51°22.055 2°47.511 338.6 11.69 330 -999
2008-09-15 08:03:50 51°22.083 2°47.487 338.6 11.69 330 -999
2008-09-15 08:04:00 51°22.111 2°47.461 338.1 11.5 334 -999
2008-09-15 08:04:10 51°22.14 2°47.439 338.1 11.5 334 -999
2008-09-15 08:04:20 51°22.169 2°47.418 338.1 11.5 334 -999
2008-09-15 08:04:30 51°22.198 2°47.398 338.1 11.5 334 -999
2008-09-15 08:04:40 51°22.227 2°47.379 338.1 11.5 334 -999
2008-09-15 08:04:50 51°22.257 2°47.36 338.1 11.5 334 -999
2008-09-15 08:05:00 51°22.286 2°47.34 344.8 11.4 336 -999
2008-09-15 08:05:10 51°22.317 2°47.318 344.8 11.4 336 -999
2008-09-15 08:05:20 51°22.344 2°47.301 344.8 11.4 336 -999
2008-09-15 08:05:30 51°22.373 2°47.281 344.8 11.4 336 -999
2008-09-15 08:05:40 51°22.402 2°47.261 344.8 11.4 336 -999
2008-09-15 08:05:50 51°22.431 2°47.242 344.8 11.4 336 -999
2008-09-15 08:06:00 51°22.46 2°47.223 346.1 11.19 337 -999
2008-09-15 08:06:10 51°22.488 2°47.202 346.1 11.19 337 -999
2008-09-15 08:06:20 51°22.516 2°47.182 346.1 11.19 337 -999
2008-09-15 08:06:30 51°22.544 2°47.161 346.1 11.19 337 -999
2008-09-15 08:06:40 51°22.573 2°47.142 346.1 11.19 337 -999
2008-09-15 08:06:50 51°22.601 2°47.121 346.1 11.19 337 -999
2008-09-15 08:07:00 51°22.629 2°47.1 344.6 11.3 336 -999
2008-09-15 08:07:10 51°22.658 2°47.081 344.6 11.3 336 -999
2008-09-15 08:07:20 51°22.687 2°47.06 344.6 11.3 336 -999
2008-09-15 08:07:30 51°22.715 2°47.038 344.6 11.3 336 -999
2008-09-15 08:07:40 51°22.743 2°47.017 344.6 11.3 336 -999
2008-09-15 08:07:50 51°22.772 2°46.997 344.6 11.3 336 -999
2008-09-15 08:08:00 51°22.801 2°46.976 345.3 11.4 336 -999
2008-09-15 08:08:10 51°22.83 2°46.956 345.3 11.4 336 -999
2008-09-15 08:08:20 51°22.858 2°46.934 345.3 11.4 336 -999
2008-09-15 08:08:30 51°22.887 2°46.913 345.3 11.4 336 -999
2008-09-15 08:08:40 51°22.915 2°46.893 345.3 11.4 336 -999
2008-09-15 08:08:50 51°22.944 2°46.873 345.3 11.4 336 -999
2008-09-15 08:09:00 51°22.972 2°46.851 344.6 11.3 336 -999
2008-09-15 08:09:10 51°23.003 2°46.827 344.6 11.3 336 -999
2008-09-15 08:09:20 51°23.029 2°46.808 344.6 11.3 336 -999
2008-09-15 08:09:30 51°23.058 2°46.786 344.6 11.3 336 -999
2008-09-15 08:09:40 51°23.087 2°46.765 344.6 11.3 336 -999
2008-09-15 08:09:50 51°23.116 2°46.744 344.6 11.3 336 -999
2008-09-15 08:10:00 51°23.144 2°46.723 343.6 11.4 335 -999
2008-09-15 08:10:10 51°23.172 2°46.7 343.6 11.4 335 -999
2008-09-15 08:10:20 51°23.201 2°46.679 343.6 11.4 335 -999
2008-09-15 08:10:30 51°23.229 2°46.659 343.6 11.4 335 -999
2008-09-15 08:10:40 51°23.258 2°46.64 343.6 11.4 335 -999
2008-09-15 08:10:50 51°23.287 2°46.62 343.6 11.4 335 -999
2008-09-15 08:11:00 51°23.316 2°46.6 345.3 11.4 336 -999
2008-09-15 08:11:10 51°23.345 2°46.578 345.3 11.4 336 -999
2008-09-15 08:11:20 51°23.377 2°46.555 345.3 11.4 336 -999
2008-09-15 08:11:30 51°23.403 2°46.537 345.3 11.4 336 -999
2008-09-15 08:11:40 51°23.431 2°46.517 345.3 11.4 336 -999
2008-09-15 08:11:50 51°23.46 2°46.497 345.3 11.4 336 -999
2008-09-15 08:12:00 51°23.491 2°46.473 344.1 11.3 336 -999
2008-09-15 08:12:10 51°23.517 2°46.454 344.1 11.3 336 -999
2008-09-15 08:12:20 51°23.546 2°46.434 344.1 11.3 336 -999
2008-09-15 08:12:30 51°23.574 2°46.413 344.1 11.3 336 -999
2008-09-15 08:12:40 51°23.602 2°46.391 344.1 11.3 336 -999
2008-09-15 08:12:50 51°23.631 2°46.369 344.1 11.3 336 -999
2008-09-15 08:13:00 51°23.66 2°46.347 343.1 11.59 335 -999
2008-09-15 08:13:10 51°23.69 2°46.326 343.1 11.59 335 -999
2008-09-15 08:13:20 51°23.719 2°46.305 343.1 11.59 335 -999
2008-09-15 08:13:30 51°23.751 2°46.28 343.1 11.59 335 -999
2008-09-15 08:13:40 51°23.778 2°46.26 343.1 11.59 335 -999
2008-09-15 08:13:50 51°23.807 2°46.239 343.1 11.59 335 -999
2008-09-15 08:14:00 51°23.839 2°46.215 344.3 11.59 335 -999
2008-09-15 08:14:10 51°23.868 2°46.193 344.3 11.59 335 -999
2008-09-15 08:14:20 51°23.894 2°46.173 344.3 11.59 335 -999
2008-09-15 08:14:30 51°23.923 2°46.151 344.3 11.59 335 -999
2008-09-15 08:14:40 51°23.955 2°46.127 344.3 11.59 335 -999
2008-09-15 08:14:50 51°23.981 2°46.109 344.3 11.59 335 -999
2008-09-15 08:15:00 51°24.01 2°46.089 346 11.4 339 -999
2008-09-15 08:15:10 51°24.04 2°46.071 346 11.4 339 -999
2008-09-15 08:15:20 51°24.07 2°46.059 346 11.4 339 -999
2008-09-15 08:15:30 51°24.103 2°46.053 346 11.4 339 -999
2008-09-15 08:15:40 51°24.129 2°46.051 346 11.4 339 -999
2008-09-15 08:15:50 51°24.158 2°46.053 346 11.4 339 -999
2008-09-15 08:16:00 51°24.186 2°46.063 14.4 10.19 14 -999
2008-09-15 08:16:10 51°24.213 2°46.076 14.4 10.19 14 -999
2008-09-15 08:16:20 51°24.242 2°46.093 14.4 10.19 14 -999
2008-09-15 08:16:30 51°24.264 2°46.11 14.4 10.19 14 -999
2008-09-15 08:16:40 51°24.289 2°46.138 14.4 10.19 14 -999
2008-09-15 08:16:50 51°24.308 2°46.162 14.4 10.19 14 -999
2008-09-15 08:17:00 51°24.328 2°46.192 43.5 9.8 42 -999
2008-09-15 08:17:10 51°24.348 2°46.222 43.5 9.8 42 -999
2008-09-15 08:17:20 51°24.366 2°46.253 43.5 9.8 42 -999
2008-09-15 08:17:30 51°24.386 2°46.288 43.5 9.8 42 -999
2008-09-15 08:17:40 51°24.405 2°46.319 43.5 9.8 42 -999
2008-09-15 08:17:50 51°24.422 2°46.347 43.5 9.8 42 -999
2008-09-15 08:18:00 51°24.441 2°46.377 45.7 9.9 46 -999
2008-09-15 08:18:10 51°24.461 2°46.407 45.7 9.9 46 -999
2008-09-15 08:18:20 51°24.48 2°46.437 45.7 9.9 46 -999
2008-09-15 08:18:30 51°24.502 2°46.47 45.7 9.9 46 -999
2008-09-15 08:18:40 51°24.52 2°46.497 45.7 9.9 46 -999
2008-09-15 08:18:50 51°24.54 2°46.527 45.7 9.9 46 -999
2008-09-15 08:19:00 51°24.562 2°46.56 44.7 9.9 43 -999
2008-09-15 08:19:10 51°24.582 2°46.59 44.7 9.9 43 -999
2008-09-15 08:19:20 51°24.603 2°46.62 44.7 9.9 43 -999
2008-09-15 08:19:30 51°24.62 2°46.647 44.7 9.9 43 -999
2008-09-15 08:19:40 51°24.64 2°46.677 44.7 9.9 43 -999
2008-09-15 08:19:50 51°24.662 2°46.71 44.7 9.9 43 -999
2008-09-15 08:20:00 51°24.682 2°46.74 45 10 41 -999
2008-09-15 08:20:10 51°24.703 2°46.77 45 10 41 -999
2008-09-15 08:20:20 51°24.722 2°46.798 45 10 41 -999
2008-09-15 08:20:30 51°24.744 2°46.831 45 10 41 -999
2008-09-15 08:20:40 51°24.765 2°46.86 45 10 41 -999
2008-09-15 08:20:50 51°24.784 2°46.887 45 10 41 -999
2008-09-15 08:21:00 51°24.807 2°46.92 43.3 10.09 42 -999
2008-09-15 08:21:10 51°24.825 2°46.947 43.3 10.09 42 -999
2008-09-15 08:21:20 51°24.846 2°46.977 43.3 10.09 42 -999
2008-09-15 08:21:30 51°24.867 2°47.008 43.3 10.09 42 -999
2008-09-15 08:21:40 51°24.888 2°47.038 43.3 10.09 42 -999
2008-09-15 08:21:50 51°24.909 2°47.068 43.3 10.09 42 -999
2008-09-15 08:22:00 51°24.932 2°47.101 43.2 10.19 45 -999
2008-09-15 08:22:10 51°24.951 2°47.133 43.2 10.19 45 -999
2008-09-15 08:22:20 51°24.97 2°47.166 43.2 10.19 45 -999
2008-09-15 08:22:30 51°24.987 2°47.196 43.2 10.19 45 -999
2008-09-15 08:22:40 51°25.004 2°47.232 43.2 10.19 45 -999
2008-09-15 08:22:50 51°25.023 2°47.271 43.2 10.19 45 -999
2008-09-15 08:23:00 51°25.039 2°47.308 54.2 10.09 54 -999
2008-09-15 08:23:10 51°25.055 2°47.345 54.2 10.09 54 -999
2008-09-15 08:23:20 51°25.071 2°47.382 54.2 10.09 54 -999
2008-09-15 08:23:30 51°25.085 2°47.415 54.2 10.09 54 -999
2008-09-15 08:23:40 51°25.102 2°47.456 54.2 10.09 54 -999
2008-09-15 08:23:50 51°25.118 2°47.493 54.2 10.09 54 -999
2008-09-15 08:24:00 51°25.135 2°47.53 55 10.19 55 -999
2008-09-15 08:24:10 51°25.151 2°47.567 55 10.19 55 -999
2008-09-15 08:24:20 51°25.166 2°47.601 55 10.19 55 -999
2008-09-15 08:24:30 51°25.182 2°47.643 55 10.19 55 -999
2008-09-15 08:24:40 51°25.197 2°47.682 55 10.19 55 -999
2008-09-15 08:24:50 51°25.208 2°47.718 55 10.19 55 -999
2008-09-15 08:25:00 51°25.221 2°47.757 60.8 10.09 62 -999
2008-09-15 08:25:10 51°25.236 2°47.801 60.8 10.09 62 -999
2008-09-15 08:25:20 51°25.247 2°47.837 60.8 10.09 62 -999
2008-09-15 08:25:30 51°25.261 2°47.88 60.8 10.09 62 -999
2008-09-15 08:25:40 51°25.275 2°47.92 60.8 10.09 62 -999
2008-09-15 08:25:50 51°25.287 2°47.955 60.8 10.09 62 -999
2008-09-15 08:26:00 51°25.302 2°47.999 59.8 10.19 60 -999
2008-09-15 08:26:10 51°25.315 2°48.035 59.8 10.19 60 -999
2008-09-15 08:26:20 51°25.33 2°48.078 59.8 10.19 60 -999
2008-09-15 08:26:30 51°25.344 2°48.118 59.8 10.19 60 -999
2008-09-15 08:26:40 51°25.359 2°48.157 59.8 10.19 60 -999
2008-09-15 08:26:50 51°25.373 2°48.197 59.8 10.19 60 -999
2008-09-15 08:27:00 51°25.386 2°48.232 58.8 10.19 60 -999
2008-09-15 08:27:10 51°25.4 2°48.272 58.8 10.19 60 -999
2008-09-15 08:27:20 51°25.415 2°48.316 58.8 10.19 60 -999
2008-09-15 08:27:30 51°25.429 2°48.355 58.8 10.19 60 -999
2008-09-15 08:27:40 51°25.443 2°48.395 58.8 10.19 60 -999
2008-09-15 08:27:50 51°25.455 2°48.431 58.8 10.19 60 -999
2008-09-15 08:28:00 51°25.47 2°48.47 58.5 10.19 60 -999
2008-09-15 08:28:10 51°25.485 2°48.513 58.5 10.19 60 -999
2008-09-15 08:28:20 51°25.499 2°48.552 58.5 10.19 60 -999
2008-09-15 08:28:30 51°25.513 2°48.592 58.5 10.19 60 -999
2008-09-15 08:28:40 51°25.525 2°48.628 58.5 10.19 60 -999
2008-09-15 08:28:50 51°25.538 2°48.668 58.5 10.19 60 -999
2008-09-15 08:29:00 51°25.553 2°48.712 60.3 10.19 62 -999
2008-09-15 08:29:10 51°25.567 2°48.751 60.3 10.19 62 -999
2008-09-15 08:29:20 51°25.581 2°48.791 60.3 10.19 62 -999
2008-09-15 08:29:30 51°25.593 2°48.826 60.3 10.19 62 -999
2008-09-15 08:29:40 51°25.608 2°48.87 60.3 10.19 62 -999
2008-09-15 08:29:50 51°25.623 2°48.909 60.3 10.19 62 -999
2008-09-15 08:30:00 51°25.636 2°48.947 58.5 10 60 -999
2008-09-15 08:30:10 51°25.65 2°48.987 58.5 10 60 -999
2008-09-15 08:30:20 51°25.662 2°49.021 58.5 10 60 -999
2008-09-15 08:30:30 51°25.677 2°49.065 58.5 10 60 -999
2008-09-15 08:30:40 51°25.69 2°49.104 58.5 10 60 -999
2008-09-15 08:30:50 51°25.703 2°49.144 58.5 10 60 -999
2008-09-15 08:31:00 51°25.716 2°49.183 59.3 10.19 62 -999
2008-09-15 08:31:10 51°25.728 2°49.219 59.3 10.19 62 -999
2008-09-15 08:31:20 51°25.744 2°49.262 59.3 10.19 62 -999
2008-09-15 08:31:30 51°25.758 2°49.3 59.3 10.19 62 -999
2008-09-15 08:31:40 51°25.772 2°49.339 59.3 10.19 62 -999
2008-09-15 08:31:50 51°25.786 2°49.378 59.3 10.19 62 -999
2008-09-15 08:32:00 51°25.8 2°49.418 59.3 10.19 60 -999
2008-09-15 08:32:10 51°25.814 2°49.457 59.3 10.19 60 -999
2008-09-15 08:32:20 51°25.827 2°49.496 59.3 10.19 60 -999
2008-09-15 08:32:30 51°25.842 2°49.536 59.3 10.19 60 -999
2008-09-15 08:32:40 51°25.855 2°49.576 59.3 10.19 60 -999
2008-09-15 08:32:50 51°25.868 2°49.616 59.3 10.19 60 -999
2008-09-15 08:33:00 51°25.882 2°49.655 59.5 10.19 61 -999
2008-09-15 08:33:10 51°25.896 2°49.694 59.5 10.19 61 -999
2008-09-15 08:33:20 51°25.909 2°49.733 59.5 10.19 61 -999
2008-09-15 08:33:30 51°25.923 2°49.772 59.5 10.19 61 -999
2008-09-15 08:33:40 51°25.936 2°49.807 59.5 10.19 61 -999
2008-09-15 08:33:50 51°25.951 2°49.851 59.5 10.19 61 -999
2008-09-15 08:34:00 51°25.964 2°49.891 60.3 10.3 63 -999
2008-09-15 08:34:10 51°25.978 2°49.932 60.3 10.3 63 -999
2008-09-15 08:34:20 51°25.992 2°49.971 60.3 10.3 63 -999
2008-09-15 08:34:30 51°26.006 2°50.01 60.3 10.3 63 -999
2008-09-15 08:34:40 51°26.02 2°50.049 60.3 10.3 63 -999
2008-09-15 08:34:50 51°26.034 2°50.089 60.3 10.3 63 -999
2008-09-15 08:35:00 51°26.048 2°50.128 58.7 10.19 61 -999
2008-09-15 08:35:10 51°26.062 2°50.168 58.7 10.19 61 -999
2008-09-15 08:35:20 51°26.076 2°50.207 58.7 10.19 61 -999
2008-09-15 08:35:30 51°26.09 2°50.246 58.7 10.19 61 -999
2008-09-15 08:35:40 51°26.104 2°50.286 58.7 10.19 61 -999
2008-09-15 08:35:50 51°26.118 2°50.325 58.7 10.19 61 -999
2008-09-15 08:36:00 51°26.132 2°50.365 59.6 10.3 61 -999
2008-09-15 08:36:10 51°26.146 2°50.406 59.6 10.3 61 -999
2008-09-15 08:36:20 51°26.159 2°50.446 59.6 10.3 61 -999
2008-09-15 08:36:30 51°26.172 2°50.487 59.6 10.3 61 -999
2008-09-15 08:36:40 51°26.186 2°50.527 59.6 10.3 61 -999
2008-09-15 08:36:50 51°26.2 2°50.567 59.6 10.3 61 -999
2008-09-15 08:37:00 51°26.215 2°50.606 59.2 10.3 60 -999
2008-09-15 08:37:10 51°26.227 2°50.642 59.2 10.3 60 -999
2008-09-15 08:37:20 51°26.243 2°50.686 59.2 10.3 60 -999
2008-09-15 08:37:30 51°26.257 2°50.726 59.2 10.3 60 -999
2008-09-15 08:37:40 51°26.271 2°50.766 59.2 10.3 60 -999
2008-09-15 08:37:50 51°26.285 2°50.806 59.2 10.3 60 -999
2008-09-15 08:38:00 51°26.299 2°50.846 59 10.4 59 -999
2008-09-15 08:38:10 51°26.314 2°50.885 59 10.4 59 -999
2008-09-15 08:38:20 51°26.33 2°50.924 59 10.4 59 -999
2008-09-15 08:38:30 51°26.345 2°50.963 59 10.4 59 -999
2008-09-15 08:38:40 51°26.362 2°51.001 59 10.4 59 -999
2008-09-15 08:38:50 51°26.378 2°51.039 59 10.4 59 -999
2008-09-15 08:39:00 51°26.394 2°51.076 54.7 10.3 56 -999
2008-09-15 08:39:10 51°26.41 2°51.115 54.7 10.3 56 -999
2008-09-15 08:39:20 51°26.425 2°51.153 54.7 10.3 56 -999
2008-09-15 08:39:30 51°26.441 2°51.192 54.7 10.3 56 -999
2008-09-15 08:39:40 51°26.456 2°51.23 54.7 10.3 56 -999
2008-09-15 08:39:50 51°26.472 2°51.269 54.7 10.3 56 -999
2008-09-15 08:40:00 51°26.488 2°51.308 56.3 10.4 57 -999
2008-09-15 08:40:10 51°26.503 2°51.347 56.3 10.4 57 -999
2008-09-15 08:40:20 51°26.518 2°51.386 56.3 10.4 57 -999
2008-09-15 08:40:30 51°26.534 2°51.424 56.3 10.4 57 -999
2008-09-15 08:40:40 51°26.55 2°51.463 56.3 10.4 57 -999
2008-09-15 08:40:50 51°26.566 2°51.502 56.3 10.4 57 -999
2008-09-15 08:41:00 51°26.582 2°51.541 55.1 10.5 56 -999
2008-09-15 08:41:10 51°26.599 2°51.579 55.1 10.5 56 -999
2008-09-15 08:41:20 51°26.615 2°51.617 55.1 10.5 56 -999
2008-09-15 08:41:30 51°26.632 2°51.655 55.1 10.5 56 -999
2008-09-15 08:41:40 51°26.648 2°51.693 55.1 10.5 56 -999
2008-09-15 08:41:50 51°26.664 2°51.731 55.1 10.5 56 -999
2008-09-15 08:42:00 51°26.68 2°51.77 54.7 10.5 57 -999
2008-09-15 08:42:10 51°26.695 2°51.809 54.7 10.5 57 -999
2008-09-15 08:42:20 51°26.711 2°51.848 54.7 10.5 57 -999
2008-09-15 08:42:30 51°26.727 2°51.887 54.7 10.5 57 -999
2008-09-15 08:42:40 51°26.743 2°51.926 54.7 10.5 57 -999
2008-09-15 08:42:50 51°26.758 2°51.965 54.7 10.5 57 -999
2008-09-15 08:43:00 51°26.774 2°52.004 56.2 10.4 56 -999
2008-09-15 08:43:10 51°26.79 2°52.043 56.2 10.4 56 -999
2008-09-15 08:43:20 51°26.806 2°52.082 56.2 10.4 56 -999
2008-09-15 08:43:30 51°26.822 2°52.12 56.2 10.4 56 -999
2008-09-15 08:43:40 51°26.839 2°52.158 56.2 10.4 56 -999
2008-09-15 08:43:50 51°26.855 2°52.197 56.2 10.4 56 -999
2008-09-15 08:44:00 51°26.871 2°52.237 55.7 10.59 57 -999
2008-09-15 08:44:10 51°26.886 2°52.276 55.7 10.59 57 -999
2008-09-15 08:44:20 51°26.903 2°52.314 55.7 10.59 57 -999
2008-09-15 08:44:30 51°26.92 2°52.353 55.7 10.59 57 -999
2008-09-15 08:44:40 51°26.936 2°52.391 55.7 10.59 57 -999
2008-09-15 08:44:50 51°26.953 2°52.429 55.7 10.59 57 -999
2008-09-15 08:45:00 51°26.969 2°52.468 54.2 10.5 56 -999
2008-09-15 08:45:10 51°26.986 2°52.506 54.2 10.5 56 -999
2008-09-15 08:45:20 51°27.002 2°52.544 54.2 10.5 56 -999
2008-09-15 08:45:30 51°27.019 2°52.582 54.2 10.5 56 -999
2008-09-15 08:45:40 51°27.035 2°52.621 54.2 10.5 56 -999
2008-09-15 08:45:50 51°27.05 2°52.661 54.2 10.5 56 -999
2008-09-15 08:46:00 51°27.065 2°52.701 57.2 10.5 58 -999
2008-09-15 08:46:10 51°27.08 2°52.741 57.2 10.5 58 -999
2008-09-15 08:46:20 51°27.095 2°52.78 57.2 10.5 58 -999
2008-09-15 08:46:30 51°27.11 2°52.819 57.2 10.5 58 -999
2008-09-15 08:46:40 51°27.125 2°52.858 57.2 10.5 58 -999
2008-09-15 08:46:50 51°27.14 2°52.897 57.2 10.5 58 -999
2008-09-15 08:47:00 51°27.156 2°52.936 56.2 10.4 59 -999
2008-09-15 08:47:10 51°27.171 2°52.976 56.2 10.4 59 -999
2008-09-15 08:47:20 51°27.186 2°53.015 56.2 10.4 59 -999
2008-09-15 08:47:30 51°27.201 2°53.053 56.2 10.4 59 -999
2008-09-15 08:47:40 51°27.217 2°53.092 56.2 10.4 59 -999
2008-09-15 08:47:50 51°27.233 2°53.13 56.2 10.4 59 -999
2008-09-15 08:48:00 51°27.25 2°53.167 54.2 10.3 55 -999
2008-09-15 08:48:10 51°27.266 2°53.205 54.2 10.3 55 -999
2008-09-15 08:48:20 51°27.281 2°53.244 54.2 10.3 55 -999
2008-09-15 08:48:30 51°27.297 2°53.283 54.2 10.3 55 -999
2008-09-15 08:48:40 51°27.313 2°53.321 54.2 10.3 55 -999
2008-09-15 08:48:50 51°27.328 2°53.36 54.2 10.3 55 -999
2008-09-15 08:49:00 51°27.342 2°53.399 57.7 10.3 60 -999
2008-09-15 08:49:10 51°27.355 2°53.44 57.7 10.3 60 -999
2008-09-15 08:49:20 51°27.368 2°53.48 57.7 10.3 60 -999
2008-09-15 08:49:30 51°27.381 2°53.521 57.7 10.3 60 -999
2008-09-15 08:49:40 51°27.394 2°53.562 57.7 10.3 60 -999
2008-09-15 08:49:50 51°27.406 2°53.603 57.7 10.3 60 -999
2008-09-15 08:50:00 51°27.419 2°53.643 59.7 10.3 63 -999
2008-09-15 08:50:10 51°27.433 2°53.684 59.7 10.3 63 -999
2008-09-15 08:50:20 51°27.447 2°53.724 59.7 10.3 63 -999
2008-09-15 08:50:30 51°27.461 2°53.763 59.7 10.3 63 -999
2008-09-15 08:50:40 51°27.474 2°53.803 59.7 10.3 63 -999
2008-09-15 08:50:50 51°27.488 2°53.842 59.7 10.3 63 -999
2008-09-15 08:51:00 51°27.501 2°53.883 59.7 10.09 62 -999
2008-09-15 08:51:10 51°27.514 2°53.923 59.7 10.09 62 -999
2008-09-15 08:51:20 51°27.527 2°53.963 59.7 10.09 62 -999
2008-09-15 08:51:30 51°27.54 2°54.004 59.7 10.09 62 -999
2008-09-15 08:51:40 51°27.552 2°54.045 59.7 10.09 62 -999
2008-09-15 08:51:50 51°27.565 2°54.086 59.7 10.09 62 -999
2008-09-15 08:52:00 51°27.578 2°54.127 61.2 10.19 63 -999
2008-09-15 08:52:10 51°27.591 2°54.167 61.2 10.19 63 -999
2008-09-15 08:52:20 51°27.604 2°54.207 61.2 10.19 63 -999
2008-09-15 08:52:30 51°27.617 2°54.247 61.2 10.19 63 -999
2008-09-15 08:52:40 51°27.631 2°54.287 61.2 10.19 63 -999
2008-09-15 08:52:50 51°27.645 2°54.327 61.2 10.19 63 -999
2008-09-15 08:53:00 51°27.66 2°54.366 57.7 10.3 59 -999
2008-09-15 08:53:10 51°27.674 2°54.405 57.7 10.3 59 -999
2008-09-15 08:53:20 51°27.688 2°54.444 57.7 10.3 59 -999
2008-09-15 08:53:30 51°27.703 2°54.483 57.7 10.3 59 -999
2008-09-15 08:53:40 51°27.718 2°54.521 57.7 10.3 59 -999
2008-09-15 08:53:50 51°27.733 2°54.56 57.7 10.3 59 -999
2008-09-15 08:54:00 51°27.748 2°54.599 55.7 10.3 60 -999
2008-09-15 08:54:10 51°27.762 2°54.637 55.7 10.3 60 -999
2008-09-15 08:54:20 51°27.777 2°54.677 55.7 10.3 60 -999
2008-09-15 08:54:30 51°27.79 2°54.717 55.7 10.3 60 -999
2008-09-15 08:54:40 51°27.804 2°54.757 55.7 10.3 60 -999
2008-09-15 08:54:50 51°27.818 2°54.796 55.7 10.3 60 -999
2008-09-15 08:55:00 51°27.831 2°54.837 58.6 10.3 60 -999
2008-09-15 08:55:10 51°27.845 2°54.876 58.6 10.3 60 -999
2008-09-15 08:55:20 51°27.859 2°54.915 58.6 10.3 60 -999
2008-09-15 08:55:30 51°27.874 2°54.954 58.6 10.3 60 -999
2008-09-15 08:55:40 51°27.89 2°54.993 58.6 10.3 60 -999
2008-09-15 08:55:50 51°27.904 2°55.032 58.6 10.3 60 -999
2008-09-15 08:56:00 51°27.918 2°55.071 57.2 10.19 61 -999
2008-09-15 08:56:10 51°27.933 2°55.109 57.2 10.19 61 -999
2008-09-15 08:56:20 51°27.949 2°55.147 57.2 10.19 61 -999
2008-09-15 08:56:30 51°27.965 2°55.185 57.2 10.19 61 -999
2008-09-15 08:56:40 51°27.98 2°55.223 57.2 10.19 61 -999
2008-09-15 08:56:50 51°27.996 2°55.262 57.2 10.19 61 -999
2008-09-15 08:57:00 51°28.011 2°55.3 55.5 10.3 57 -999
2008-09-15 08:57:10 51°28.026 2°55.34 55.5 10.3 57 -999
2008-09-15 08:57:20 51°28.041 2°55.379 55.5 10.3 57 -999
2008-09-15 08:57:30 51°28.056 2°55.418 55.5 10.3 57 -999
2008-09-15 08:57:40 51°28.071 2°55.457 55.5 10.3 57 -999
2008-09-15 08:57:50 51°28.086 2°55.495 55.5 10.3 57 -999
2008-09-15 08:58:00 51°28.101 2°55.533 56.6 10.19 57 -999
2008-09-15 08:58:10 51°28.116 2°55.572 56.6 10.19 57 -999
2008-09-15 08:58:20 51°28.132 2°55.61 56.6 10.19 57 -999
2008-09-15 08:58:30 51°28.147 2°55.647 56.6 10.19 57 -999
2008-09-15 08:58:40 51°28.162 2°55.681 56.6 10.19 57 -999
2008-09-15 08:58:50 51°28.179 2°55.723 56.6 10.19 57 -999
2008-09-15 08:59:00 51°28.192 2°55.756 55.7 9.19 60 -999
2008-09-15 08:59:10 51°28.203 2°55.79 55.7 9.19 60 -999
2008-09-15 08:59:20 51°28.212 2°55.816 55.7 9.19 60 -999
2008-09-15 08:59:30 51°28.219 2°55.833 55.7 9.19 60 -999
2008-09-15 08:59:40 51°28.227 2°55.846 55.7 9.19 60 -999
2008-09-15 08:59:50 51°28.234 2°55.851 55.7 9.19 60 -999
2008-09-15 09:00:00 51°28.241 2°55.854 28.3 2.29 10 -999
2008-09-15 09:00:10 51°28.247 2°55.854 28.3 2.29 10 -999
2008-09-15 09:00:20 51°28.252 2°55.853 28.3 2.29 10 -999
2008-09-15 09:00:30 51°28.256 2°55.851 28.3 2.29 10 -999
2008-09-15 09:00:40 51°28.26 2°55.848 28.3 2.29 10 -999
2008-09-15 09:00:50 51°28.263 2°55.845 28.3 2.29 10 -999
2008-09-15 09:01:00 51°28.265 2°55.842 17.5 1.19 316 -999
2008-09-15 09:01:10 51°28.267 2°55.838 17.5 1.19 316 -999
2008-09-15 09:01:20 51°28.269 2°55.834 17.5 1.19 316 -999
2008-09-15 09:01:30 51°28.27 2°55.829 17.5 1.19 316 -999
2008-09-15 09:01:40 51°28.271 2°55.824 17.5 1.19 316 -999
2008-09-15 09:01:50 51°28.271 2°55.819 17.5 1.19 316 -999
2008-09-15 09:02:00 51°28.271 2°55.814 17.1 1.3 267 -999
2008-09-15 09:02:10 51°28.271 2°55.81 17.1 1.3 267 -999
2008-09-15 09:02:20 51°28.272 2°55.807 17.1 1.3 267 -999
2008-09-15 09:02:30 51°28.273 2°55.804 17.1 1.3 267 -999
2008-09-15 09:02:40 51°28.275 2°55.803 17.1 1.3 267 -999
2008-09-15 09:02:50 51°28.276 2°55.804 17.1 1.3 267 -999
2008-09-15 09:03:00 51°28.279 2°55.807 44.3 1.3 41 -999
2008-09-15 09:03:10 51°28.282 2°55.812 44.3 1.3 41 -999
2008-09-15 09:03:20 51°28.287 2°55.819 44.3 1.3 41 -999
2008-09-15 09:03:30 51°28.292 2°55.826 44.3 1.3 41 -999
2008-09-15 09:03:40 51°28.296 2°55.832 44.3 1.3 41 -999
2008-09-15 09:03:50 51°28.3 2°55.837 44.3 1.3 41 -999
2008-09-15 09:04:00 51°28.303 2°55.84 43.6 1.3 34 -999
2008-09-15 09:04:10 51°28.305 2°55.842 43.6 1.3 34 -999
2008-09-15 09:04:20 51°28.308 2°55.845 43.6 1.3 34 -999
2008-09-15 09:04:30 51°28.312 2°55.848 43.6 1.3 34 -999
2008-09-15 09:04:40 51°28.318 2°55.855 43.6 1.3 34 -999
2008-09-15 09:04:50 51°28.326 2°55.862 43.6 1.3 34 -999
2008-09-15 09:05:00 51°28.332 2°55.871 39.8 3 42 -999
2008-09-15 09:05:10 51°28.337 2°55.881 39.8 3 42 -999
2008-09-15 09:05:20 51°28.341 2°55.891 39.8 3 42 -999
2008-09-15 09:05:30 51°28.345 2°55.902 39.8 3 42 -999
2008-09-15 09:05:40 51°28.348 2°55.912 39.8 3 42 -999
2008-09-15 09:05:50 51°28.35 2°55.921 39.8 3 42 -999
2008-09-15 09:06:00 51°28.353 2°55.931 59.7 2.29 69 -999
2008-09-15 09:06:10 51°28.355 2°55.94 59.7 2.29 69 -999
2008-09-15 09:06:20 51°28.358 2°55.949 59.7 2.29 69 -999
2008-09-15 09:06:30 51°28.361 2°55.957 59.7 2.29 69 -999
2008-09-15 09:06:40 51°28.364 2°55.965 59.7 2.29 69 -999
2008-09-15 09:06:50 51°28.368 2°55.973 59.7 2.29 69 -999
2008-09-15 09:07:00 51°28.373 2°55.981 46.3 2.5 40 -999
2008-09-15 09:07:10 51°28.379 2°55.987 46.3 2.5 40 -999
2008-09-15 09:07:20 51°28.386 2°55.992 46.3 2.5 40 -999
2008-09-15 09:07:30 51°28.392 2°55.997 46.3 2.5 40 -999
2008-09-15 09:07:40 51°28.4 2°56.001 46.3 2.5 40 -999
2008-09-15 09:07:50 51°28.408 2°56.006 46.3 2.5 40 -999
2008-09-15 09:08:00 51°28.415 2°56.01 31.1 2.79 21 -999
2008-09-15 09:08:10 51°28.422 2°56.016 31.1 2.79 21 -999
2008-09-15 09:08:20 51°28.429 2°56.022 31.1 2.79 21 -999
2008-09-15 09:08:30 51°28.435 2°56.028 31.1 2.79 21 -999
2008-09-15 09:08:40 51°28.441 2°56.036 31.1 2.79 21 -999
2008-09-15 09:08:50 51°28.446 2°56.043 31.1 2.79 21 -999
2008-09-15 09:09:00 51°28.452 2°56.05 44.1 2.5 43 -999
2008-09-15 09:09:10 51°28.457 2°56.057 44.1 2.5 43 -999
2008-09-15 09:09:20 51°28.463 2°56.065 44.1 2.5 43 -999
2008-09-15 09:09:30 51°28.468 2°56.072 44.1 2.5 43 -999
2008-09-15 09:09:40 51°28.474 2°56.079 44.1 2.5 43 -999
2008-09-15 09:09:50 51°28.48 2°56.086 44.1 2.5 43 -999
2008-09-15 09:10:00 51°28.486 2°56.093 40.7 2.6 36 -999
2008-09-15 09:10:10 51°28.492 2°56.1 40.7 2.6 36 -999
2008-09-15 09:10:20 51°28.498 2°56.108 40.7 2.6 36 -999
2008-09-15 09:10:30 51°28.503 2°56.115 40.7 2.6 36 -999
2008-09-15 09:10:40 51°28.509 2°56.125 40.7 2.6 36 -999
2008-09-15 09:10:50 51°28.515 2°56.133 40.7 2.6 36 -999
2008-09-15 09:11:00 51°28.52 2°56.142 45.7 2.7 48 -999
2008-09-15 09:11:10 51°28.525 2°56.15 45.7 2.7 48 -999
2008-09-15 09:11:20 51°28.529 2°56.157 45.7 2.7 48 -999
2008-09-15 09:11:30 51°28.535 2°56.167 45.7 2.7 48 -999
2008-09-15 09:11:40 51°28.54 2°56.175 45.7 2.7 48 -999
2008-09-15 09:11:50 51°28.545 2°56.184 45.7 2.7 48 -999
2008-09-15 09:12:00 51°28.551 2°56.192 45.6 2.79 43 -999
2008-09-15 09:12:10 51°28.556 2°56.201 45.6 2.79 43 -999
2008-09-15 09:12:20 51°28.561 2°56.21 45.6 2.79 43 -999
2008-09-15 09:12:30 51°28.566 2°56.22 45.6 2.79 43 -999
2008-09-15 09:12:40 51°28.57 2°56.228 45.6 2.79 43 -999
2008-09-15 09:12:50 51°28.575 2°56.238 45.6 2.79 43 -999
2008-09-15 09:13:00 51°28.579 2°56.248 50.3 2.7 56 -999
2008-09-15 09:13:10 51°28.583 2°56.258 50.3 2.7 56 -999
2008-09-15 09:13:20 51°28.588 2°56.268 50.3 2.7 56 -999
2008-09-15 09:13:30 51°28.592 2°56.277 50.3 2.7 56 -999
2008-09-15 09:13:40 51°28.597 2°56.286 50.3 2.7 56 -999
2008-09-15 09:13:50 51°28.602 2°56.296 50.3 2.7 56 -999
2008-09-15 09:14:00 51°28.607 2°56.305 48.7 2.7 52 -999
2008-09-15 09:14:10 51°28.611 2°56.313 48.7 2.7 52 -999
2008-09-15 09:14:20 51°28.616 2°56.324 48.7 2.7 52 -999
2008-09-15 09:14:30 51°28.621 2°56.333 48.7 2.7 52 -999
2008-09-15 09:14:40 51°28.626 2°56.343 48.7 2.7 52 -999
2008-09-15 09:14:50 51°28.63 2°56.353 48.7 2.7 52 -999
2008-09-15 09:15:00 51°28.635 2°56.364 51.8 2.79 58 -999
2008-09-15 09:15:10 51°28.638 2°56.375 51.8 2.79 58 -999
2008-09-15 09:15:20 51°28.642 2°56.387 51.8 2.79 58 -999
2008-09-15 09:15:30 51°28.646 2°56.398 51.8 2.79 58 -999
2008-09-15 09:15:40 51°28.65 2°56.407 51.8 2.79 58 -999
2008-09-15 09:15:50 51°28.654 2°56.419 51.8 2.79 58 -999
2008-09-15 09:16:00 51°28.659 2°56.429 52.7 2.89 56 -999
2008-09-15 09:16:10 51°28.663 2°56.44 52.7 2.89 56 -999
2008-09-15 09:16:20 51°28.666 2°56.449 52.7 2.89 56 -999
2008-09-15 09:16:30 51°28.671 2°56.459 52.7 2.89 56 -999
2008-09-15 09:16:40 51°28.675 2°56.469 52.7 2.89 56 -999
2008-09-15 09:16:50 51°28.679 2°56.48 52.7 2.89 56 -999
2008-09-15 09:17:00 51°28.682 2°56.49 54.2 2.6 61 -999
2008-09-15 09:17:10 51°28.686 2°56.501 54.2 2.6 61 -999
2008-09-15 09:17:20 51°28.689 2°56.51 54.2 2.6 61 -999
2008-09-15 09:17:30 51°28.693 2°56.521 54.2 2.6 61 -999
2008-09-15 09:17:40 51°28.696 2°56.531 54.2 2.6 61 -999
2008-09-15 09:17:50 51°28.7 2°56.542 54.2 2.6 61 -999
2008-09-15 09:18:00 51°28.704 2°56.552 53.3 2.6 57 -999
2008-09-15 09:18:10 51°28.708 2°56.562 53.3 2.6 57 -999
2008-09-15 09:18:20 51°28.712 2°56.572 53.3 2.6 57 -999
2008-09-15 09:18:30 51°28.716 2°56.58 53.3 2.6 57 -999
2008-09-15 09:18:40 51°28.72 2°56.589 53.3 2.6 57 -999
2008-09-15 09:18:50 51°28.725 2°56.6 53.3 2.6 57 -999
2008-09-15 09:19:00 51°28.729 2°56.61 53.1 2.79 54 -999
2008-09-15 09:19:10 51°28.733 2°56.62 53.1 2.79 54 -999
2008-09-15 09:19:20 51°28.737 2°56.63 53.1 2.79 54 -999
2008-09-15 09:19:30 51°28.741 2°56.64 53.1 2.79 54 -999
2008-09-15 09:19:40 51°28.745 2°56.651 53.1 2.79 54 -999
2008-09-15 09:19:50 51°28.749 2°56.661 53.1 2.79 54 -999
2008-09-15 09:20:00 51°28.753 2°56.672 54.7 2.7 60 -999
2008-09-15 09:20:10 51°28.756 2°56.682 54.7 2.7 60 -999
2008-09-15 09:20:20 51°28.76 2°56.692 54.7 2.7 60 -999
2008-09-15 09:20:30 51°28.764 2°56.702 54.7 2.7 60 -999
2008-09-15 09:20:40 51°28.767 2°56.714 54.7 2.7 60 -999
2008-09-15 09:20:50 51°28.771 2°56.724 54.7 2.7 60 -999
2008-09-15 09:21:00 51°28.775 2°56.733 53.7 2.79 58 -999
2008-09-15 09:21:10 51°28.779 2°56.745 53.7 2.79 58 -999
2008-09-15 09:21:20 51°28.783 2°56.753 53.7 2.79 58 -999
2008-09-15 09:21:30 51°28.788 2°56.764 53.7 2.79 58 -999
2008-09-15 09:21:40 51°28.792 2°56.774 53.7 2.79 58 -999
2008-09-15 09:21:50 51°28.796 2°56.783 53.7 2.79 58 -999
2008-09-15 09:22:00 51°28.8 2°56.792 51.6 2.6 53 -999
2008-09-15 09:22:10 51°28.804 2°56.801 51.6 2.6 53 -999
2008-09-15 09:22:20 51°28.809 2°56.811 51.6 2.6 53 -999
2008-09-15 09:22:30 51°28.812 2°56.821 51.6 2.6 53 -999
2008-09-15 09:22:40 51°28.816 2°56.831 51.6 2.6 53 -999
2008-09-15 09:22:50 51°28.819 2°56.84 51.6 2.6 53 -999
2008-09-15 09:23:00 51°28.823 2°56.85 54.2 2.7 60 -999
2008-09-15 09:23:10 51°28.827 2°56.862 54.2 2.7 60 -999
2008-09-15 09:23:20 51°28.831 2°56.872 54.2 2.7 60 -999
2008-09-15 09:23:30 51°28.836 2°56.882 54.2 2.7 60 -999
2008-09-15 09:23:40 51°28.839 2°56.891 54.2 2.7 60 -999
2008-09-15 09:23:50 51°28.842 2°56.902 54.2 2.7 60 -999
2008-09-15 09:24:00 51°28.844 2°56.915 61.6 2.6 72 -999
2008-09-15 09:24:10 51°28.846 2°56.926 61.6 2.6 72 -999
2008-09-15 09:24:20 51°28.848 2°56.937 61.6 2.6 72 -999
2008-09-15 09:24:30 51°28.85 2°56.948 61.6 2.6 72 -999
2008-09-15 09:24:40 51°28.852 2°56.959 61.6 2.6 72 -999
2008-09-15 09:24:50 51°28.853 2°56.972 61.6 2.6 72 -999
2008-09-15 09:25:00 51°28.852 2°56.983 75 2.39 108 -999
2008-09-15 09:25:10 51°28.849 2°56.992 75 2.39 108 -999
2008-09-15 09:25:20 51°28.844 2°56.999 75 2.39 108 -999
2008-09-15 09:25:30 51°28.839 2°57.004 75 2.39 108 -999
2008-09-15 09:25:40 51°28.833 2°57.008 75 2.39 108 -999
2008-09-15 09:25:50 51°28.825 2°57.011 75 2.39 108 -999
2008-09-15 09:26:00 51°28.819 2°57.012 132.6 2.5 174 -999
2008-09-15 09:26:10 51°28.812 2°57.012 132.6 2.5 174 -999
2008-09-15 09:26:20 51°28.806 2°57.012 132.6 2.5 174 -999
2008-09-15 09:26:30 51°28.799 2°57.011 132.6 2.5 174 -999
2008-09-15 09:26:40 51°28.792 2°57.009 132.6 2.5 174 -999
2008-09-15 09:26:50 51°28.785 2°57.006 132.6 2.5 174 -999
2008-09-15 09:27:00 51°28.78 2°57.004 144.6 2.29 195 -999
2008-09-15 09:27:10 51°28.773 2°57.001 144.6 2.29 195 -999
2008-09-15 09:27:20 51°28.767 2°56.998 144.6 2.29 195 -999
2008-09-15 09:27:30 51°28.761 2°56.994 144.6 2.29 195 -999
2008-09-15 09:27:40 51°28.755 2°56.99 144.6 2.29 195 -999
2008-09-15 09:27:50 51°28.749 2°56.986 144.6 2.29 195 -999
2008-09-15 09:28:00 51°28.745 2°56.983 144.6 2.2 206 -999
2008-09-15 09:28:10 51°28.74 2°56.979 144.6 2.2 206 -999
2008-09-15 09:28:20 51°28.735 2°56.975 144.6 2.2 206 -999
2008-09-15 09:28:30 51°28.729 2°56.971 144.6 2.2 206 -999
2008-09-15 09:28:40 51°28.725 2°56.967 144.6 2.2 206 -999
2008-09-15 09:28:50 51°28.72 2°56.964 144.6 2.2 206 -999
2008-09-15 09:29:00 51°28.715 2°56.96 139.4 1.89 209 -999
2008-09-15 09:29:10 51°28.711 2°56.956 139.4 1.89 209 -999
2008-09-15 09:29:20 51°28.706 2°56.951 139.4 1.89 209 -999
2008-09-15 09:29:30 51°28.702 2°56.946 139.4 1.89 209 -999
2008-09-15 09:29:40 51°28.698 2°56.942 139.4 1.89 209 -999
2008-09-15 09:29:50 51°28.693 2°56.938 139.4 1.89 209 -999
2008-09-15 09:30:00 51°28.688 2°56.932 137.3 1.89 215 -999
2008-09-15 09:30:10 51°28.684 2°56.928 137.3 1.89 215 -999
2008-09-15 09:30:20 51°28.679 2°56.923 137.3 1.89 215 -999
2008-09-15 09:30:30 51°28.675 2°56.92 137.3 1.89 215 -999
2008-09-15 09:30:40 51°28.67 2°56.917 137.3 1.89 215 -999
2008-09-15 09:30:50 51°28.664 2°56.916 137.3 1.89 215 -999
2008-09-15 09:31:00 51°28.659 2°56.92 120.5 2.29 154 -999
2008-09-15 09:31:10 51°28.653 2°56.927 120.5 2.29 154 -999
2008-09-15 09:31:20 51°28.65 2°56.937 120.5 2.29 154 -999
2008-09-15 09:31:30 51°28.651 2°56.949 120.5 2.29 154 -999
2008-09-15 09:31:40 51°28.654 2°56.959 120.5 2.29 154 -999
2008-09-15 09:31:50 51°28.661 2°56.972 120.5 2.29 154 -999
2008-09-15 09:32:00 51°28.671 2°56.989 45.2 5.5 51 -999
2008-09-15 09:32:10 51°28.681 2°57.011 45.2 5.5 51 -999
2008-09-15 09:32:20 51°28.692 2°57.035 45.2 5.5 51 -999
2008-09-15 09:32:30 51°28.704 2°57.066 45.2 5.5 51 -999
2008-09-15 09:32:40 51°28.715 2°57.095 45.2 5.5 51 -999
2008-09-15 09:32:50 51°28.725 2°57.129 45.2 5.5 51 -999
2008-09-15 09:33:00 51°28.736 2°57.166 60.8 9.19 65 -999
2008-09-15 09:33:10 51°28.747 2°57.205 60.8 9.19 65 -999
2008-09-15 09:33:20 51°28.758 2°57.244 60.8 9.19 65 -999
2008-09-15 09:33:30 51°28.77 2°57.285 60.8 9.19 65 -999
2008-09-15 09:33:40 51°28.782 2°57.326 60.8 9.19 65 -999
2008-09-15 09:33:50 51°28.794 2°57.367 60.8 9.19 65 -999
2008-09-15 09:34:00 51°28.805 2°57.408 62.8 10.3 65 -999
2008-09-15 09:34:10 51°28.817 2°57.455 62.8 10.3 65 -999
2008-09-15 09:34:20 51°28.827 2°57.492 62.8 10.3 65 -999
2008-09-15 09:34:30 51°28.839 2°57.535 62.8 10.3 65 -999
2008-09-15 09:34:40 51°28.851 2°57.578 62.8 10.3 65 -999
2008-09-15 09:34:50 51°28.864 2°57.621 62.8 10.3 65 -999
2008-09-15 09:35:00 51°28.878 2°57.668 61.8 10.8 64 -999
2008-09-15 09:35:10 51°28.89 2°57.711 61.8 10.8 64 -999
2008-09-15 09:35:20 51°28.903 2°57.755 61.8 10.8 64 -999
2008-09-15 09:35:30 51°28.914 2°57.794 61.8 10.8 64 -999
2008-09-15 09:35:40 51°28.926 2°57.837 61.8 10.8 64 -999
2008-09-15 09:35:50 51°28.939 2°57.88 61.8 10.8 64 -999
2008-09-15 09:36:00 51°28.951 2°57.924 62.1 10.8 66 -999
2008-09-15 09:36:10 51°28.963 2°57.968 62.1 10.8 66 -999
2008-09-15 09:36:20 51°28.975 2°58.011 62.1 10.8 66 -999
2008-09-15 09:36:30 51°28.986 2°58.054 62.1 10.8 66 -999
2008-09-15 09:36:40 51°28.999 2°58.098 62.1 10.8 66 -999
2008-09-15 09:36:50 51°29.013 2°58.145 62.1 10.8 66 -999
2008-09-15 09:37:00 51°29.024 2°58.184 61.2 10.69 65 -999
2008-09-15 09:37:10 51°29.036 2°58.227 61.2 10.69 65 -999
2008-09-15 09:37:20 51°29.049 2°58.271 61.2 10.69 65 -999
2008-09-15 09:37:30 51°29.061 2°58.314 61.2 10.69 65 -999
2008-09-15 09:37:40 51°29.074 2°58.362 61.2 10.69 65 -999
2008-09-15 09:37:50 51°29.084 2°58.402 61.2 10.69 65 -999
2008-09-15 09:38:00 51°29.096 2°58.446 64 10.69 66 -999
2008-09-15 09:38:10 51°29.108 2°58.49 64 10.69 66 -999
2008-09-15 09:38:20 51°29.12 2°58.533 64 10.69 66 -999
2008-09-15 09:38:30 51°29.132 2°58.576 64 10.69 66 -999
2008-09-15 09:38:40 51°29.145 2°58.619 64 10.69 66 -999
2008-09-15 09:38:50 51°29.157 2°58.662 64 10.69 66 -999
2008-09-15 09:39:00 51°29.169 2°58.706 63.2 10.69 66 -999
2008-09-15 09:39:10 51°29.182 2°58.749 63.2 10.69 66 -999
2008-09-15 09:39:20 51°29.195 2°58.791 63.2 10.69 66 -999
2008-09-15 09:39:30 51°29.208 2°58.834 63.2 10.69 66 -999
2008-09-15 09:39:40 51°29.22 2°58.877 63.2 10.69 66 -999
2008-09-15 09:39:50 51°29.233 2°58.919 63.2 10.69 66 -999
2008-09-15 09:40:00 51°29.245 2°58.963 62.5 10.59 66 -999
2008-09-15 09:40:10 51°29.258 2°59.01 62.5 10.59 66 -999
2008-09-15 09:40:20 51°29.269 2°59.049 62.5 10.59 66 -999
2008-09-15 09:40:30 51°29.282 2°59.092 62.5 10.59 66 -999
2008-09-15 09:40:40 51°29.294 2°59.135 62.5 10.59 66 -999
2008-09-15 09:40:50 51°29.306 2°59.178 62.5 10.59 66 -999
2008-09-15 09:41:00 51°29.318 2°59.221 63.2 10.69 64 -999
2008-09-15 09:41:10 51°29.33 2°59.264 63.2 10.69 64 -999
2008-09-15 09:41:20 51°29.343 2°59.307 63.2 10.69 64 -999
2008-09-15 09:41:30 51°29.356 2°59.354 63.2 10.69 64 -999
2008-09-15 09:41:40 51°29.367 2°59.393 63.2 10.69 64 -999
2008-09-15 09:41:50 51°29.379 2°59.436 63.2 10.69 64 -999
2008-09-15 09:42:00 51°29.392 2°59.479 62.8 10.5 64 -999
2008-09-15 09:42:10 51°29.404 2°59.522 62.8 10.5 64 -999
2008-09-15 09:42:20 51°29.417 2°59.564 62.8 10.5 64 -999
2008-09-15 09:42:30 51°29.429 2°59.607 62.8 10.5 64 -999
2008-09-15 09:42:40 51°29.441 2°59.65 62.8 10.5 64 -999
2008-09-15 09:42:50 51°29.453 2°59.693 62.8 10.5 64 -999
2008-09-15 09:43:00 51°29.466 2°59.736 63 10.69 65 -999
2008-09-15 09:43:10 51°29.478 2°59.779 63 10.69 65 -999
2008-09-15 09:43:20 51°29.491 2°59.823 63 10.69 65 -999
2008-09-15 09:43:30 51°29.503 2°59.866 63 10.69 65 -999
2008-09-15 09:43:40 51°29.516 2°59.909 63 10.69 65 -999
2008-09-15 09:43:50 51°29.528 2°59.952 63 10.69 65 -999
2008-09-15 09:44:00 51°29.54 2°59.995 63.3 10.69 66 -999
2008-09-15 09:44:10 51°29.552 3°0.039 63.3 10.69 66 -999
2008-09-15 09:44:20 51°29.564 3°0.082 63.3 10.69 66 -999
2008-09-15 09:44:30 51°29.577 3°0.125 63.3 10.69 66 -999
2008-09-15 09:44:40 51°29.59 3°0.168 63.3 10.69 66 -999
2008-09-15 09:44:50 51°29.602 3°0.211 63.3 10.69 66 -999
2008-09-15 09:45:00 51°29.616 3°0.253 61.7 10.69 63 -999
2008-09-15 09:45:10 51°29.628 3°0.296 61.7 10.69 63 -999
2008-09-15 09:45:20 51°29.641 3°0.339 61.7 10.69 63 -999
2008-09-15 09:45:30 51°29.653 3°0.383 61.7 10.69 63 -999
2008-09-15 09:45:40 51°29.666 3°0.426 61.7 10.69 63 -999
2008-09-15 09:45:50 51°29.678 3°0.469 61.7 10.69 63 -999
2008-09-15 09:46:00 51°29.691 3°0.512 61.8 10.69 63 -999
2008-09-15 09:46:10 51°29.704 3°0.554 61.8 10.69 63 -999
2008-09-15 09:46:20 51°29.717 3°0.596 61.8 10.69 63 -999
2008-09-15 09:46:30 51°29.729 3°0.638 61.8 10.69 63 -999
2008-09-15 09:46:40 51°29.742 3°0.68 61.8 10.69 63 -999
2008-09-15 09:46:50 51°29.755 3°0.723 61.8 10.69 63 -999
2008-09-15 09:47:00 51°29.77 3°0.764 60.5 10.59 61 -999
2008-09-15 09:47:10 51°29.785 3°0.804 60.5 10.59 61 -999
2008-09-15 09:47:20 51°29.801 3°0.842 60.5 10.59 61 -999
2008-09-15 09:47:30 51°29.82 3°0.878 60.5 10.59 61 -999
2008-09-15 09:47:40 51°29.838 3°0.914 60.5 10.59 61 -999
2008-09-15 09:47:50 51°29.858 3°0.948 60.5 10.59 61 -999
2008-09-15 09:48:00 51°29.877 3°0.982 47.6 10.5 46 -999
2008-09-15 09:48:10 51°29.897 3°1.017 47.6 10.5 46 -999
2008-09-15 09:48:20 51°29.917 3°1.052 47.6 10.5 46 -999
2008-09-15 09:48:30 51°29.936 3°1.087 47.6 10.5 46 -999
2008-09-15 09:48:40 51°29.955 3°1.122 47.6 10.5 46 -999
2008-09-15 09:48:50 51°29.975 3°1.157 47.6 10.5 46 -999
2008-09-15 09:49:00 51°29.994 3°1.192 47.7 10.59 48 -999
2008-09-15 09:49:10 51°30.014 3°1.227 47.7 10.59 48 -999
2008-09-15 09:49:20 51°30.033 3°1.263 47.7 10.59 48 -999
2008-09-15 09:49:30 51°30.053 3°1.297 47.7 10.59 48 -999
2008-09-15 09:49:40 51°30.073 3°1.333 47.7 10.59 48 -999
2008-09-15 09:49:50 51°30.092 3°1.368 47.7 10.59 48 -999
2008-09-15 09:50:00 51°30.112 3°1.403 48 10.5 46 -999
2008-09-15 09:50:10 51°30.132 3°1.437 48 10.5 46 -999
2008-09-15 09:50:20 51°30.153 3°1.47 48 10.5 46 -999
2008-09-15 09:50:30 51°30.173 3°1.504 48 10.5 46 -999
2008-09-15 09:50:40 51°30.193 3°1.539 48 10.5 46 -999
2008-09-15 09:50:50 51°30.212 3°1.574 48 10.5 46 -999
2008-09-15 09:51:00 51°30.231 3°1.61 48.7 10.4 48 -999
2008-09-15 09:51:10 51°30.25 3°1.644 48.7 10.4 48 -999
2008-09-15 09:51:20 51°30.269 3°1.679 48.7 10.4 48 -999
2008-09-15 09:51:30 51°30.288 3°1.714 48.7 10.4 48 -999
2008-09-15 09:51:40 51°30.307 3°1.75 48.7 10.4 48 -999
2008-09-15 09:51:50 51°30.327 3°1.785 48.7 10.4 48 -999
2008-09-15 09:52:00 51°30.347 3°1.82 47.1 10.59 48 -999
2008-09-15 09:52:10 51°30.367 3°1.854 47.1 10.59 48 -999
2008-09-15 09:52:20 51°30.386 3°1.89 47.1 10.59 48 -999
2008-09-15 09:52:30 51°30.405 3°1.926 47.1 10.59 48 -999
2008-09-15 09:52:40 51°30.424 3°1.962 47.1 10.59 48 -999
2008-09-15 09:52:50 51°30.443 3°1.998 47.1 10.59 48 -999
2008-09-15 09:53:00 51°30.462 3°2.033 49.2 10.59 49 -999
2008-09-15 09:53:10 51°30.481 3°2.068 49.2 10.59 49 -999
2008-09-15 09:53:20 51°30.501 3°2.103 49.2 10.59 49 -999
2008-09-15 09:53:30 51°30.521 3°2.138 49.2 10.59 49 -999
2008-09-15 09:53:40 51°30.54 3°2.173 49.2 10.59 49 -999
2008-09-15 09:53:50 51°30.559 3°2.209 49.2 10.59 49 -999
2008-09-15 09:54:00 51°30.578 3°2.245 49.1 10.59 50 -999
2008-09-15 09:54:10 51°30.598 3°2.28 49.1 10.59 50 -999
2008-09-15 09:54:20 51°30.618 3°2.316 49.1 10.59 50 -999
2008-09-15 09:54:30 51°30.637 3°2.352 49.1 10.59 50 -999
2008-09-15 09:54:40 51°30.656 3°2.388 49.1 10.59 50 -999
2008-09-15 09:54:50 51°30.675 3°2.423 49.1 10.59 50 -999
2008-09-15 09:55:00 51°30.695 3°2.459 48.5 10.59 48 -999
2008-09-15 09:55:10 51°30.714 3°2.495 48.5 10.59 48 -999
2008-09-15 09:55:20 51°30.733 3°2.531 48.5 10.59 48 -999
2008-09-15 09:55:30 51°30.753 3°2.567 48.5 10.59 48 -999
2008-09-15 09:55:40 51°30.772 3°2.603 48.5 10.59 48 -999
2008-09-15 09:55:50 51°30.791 3°2.638 48.5 10.59 48 -999
2008-09-15 09:56:00 51°30.811 3°2.672 47.1 10.59 47 -999
2008-09-15 09:56:10 51°30.831 3°2.707 47.1 10.59 47 -999
2008-09-15 09:56:20 51°30.852 3°2.741 47.1 10.59 47 -999
2008-09-15 09:56:30 51°30.872 3°2.776 47.1 10.59 47 -999
2008-09-15 09:56:40 51°30.892 3°2.81 47.1 10.59 47 -999
2008-09-15 09:56:50 51°30.912 3°2.846 47.1 10.59 47 -999
2008-09-15 09:57:00 51°30.932 3°2.88 47.7 10.69 47 -999
2008-09-15 09:57:10 51°30.951 3°2.916 47.7 10.69 47 -999
2008-09-15 09:57:20 51°30.97 3°2.953 47.7 10.69 47 -999
2008-09-15 09:57:30 51°30.989 3°2.99 47.7 10.69 47 -999
2008-09-15 09:57:40 51°31.007 3°3.029 47.7 10.69 47 -999
2008-09-15 09:57:50 51°31.025 3°3.067 47.7 10.69 47 -999
2008-09-15 09:58:00 51°31.043 3°3.105 52.5 10.8 53 -999
2008-09-15 09:58:10 51°31.06 3°3.144 52.5 10.8 53 -999
2008-09-15 09:58:20 51°31.079 3°3.182 52.5 10.8 53 -999
2008-09-15 09:58:30 51°31.098 3°3.219 52.5 10.8 53 -999
2008-09-15 09:58:40 51°31.116 3°3.255 52.5 10.8 53 -999
2008-09-15 09:58:50 51°31.135 3°3.292 52.5 10.8 53 -999
2008-09-15 09:59:00 51°31.154 3°3.329 50.1 10.69 53 -999
2008-09-15 09:59:10 51°31.172 3°3.367 50.1 10.69 53 -999
2008-09-15 09:59:20 51°31.19 3°3.405 50.1 10.69 53 -999
2008-09-15 09:59:30 51°31.208 3°3.444 50.1 10.69 53 -999
2008-09-15 09:59:40 51°31.226 3°3.483 50.1 10.69 53 -999
2008-09-15 09:59:50 51°31.244 3°3.521 50.1 10.69 53 -999
2008-09-15 10:00:00 51°31.262 3°3.56 52.2 10.69 54 -999
2008-09-15 10:00:10 51°31.28 3°3.597 52.2 10.69 54 -999
2008-09-15 10:00:20 51°31.298 3°3.635 52.2 10.69 54 -999
2008-09-15 10:00:30 51°31.317 3°3.672 52.2 10.69 54 -999
2008-09-15 10:00:40 51°31.336 3°3.708 52.2 10.69 54 -999
2008-09-15 10:00:50 51°31.355 3°3.745 52.2 10.69 54 -999
2008-09-15 10:01:00 51°31.374 3°3.782 49.7 10.69 52 -999
2008-09-15 10:01:10 51°31.393 3°3.819 49.7 10.69 52 -999
2008-09-15 10:01:20 51°31.411 3°3.857 49.7 10.69 52 -999
2008-09-15 10:01:30 51°31.43 3°3.894 49.7 10.69 52 -999
2008-09-15 10:01:40 51°31.448 3°3.933 49.7 10.69 52 -999
2008-09-15 10:01:50 51°31.468 3°3.975 49.7 10.69 52 -999
2008-09-15 10:02:00 51°31.483 3°4.01 52.2 10.9 54 -999
2008-09-15 10:02:10 51°31.502 3°4.049 52.2 10.9 54 -999
2008-09-15 10:02:20 51°31.52 3°4.087 52.2 10.9 54 -999
2008-09-15 10:02:30 51°31.539 3°4.125 52.2 10.9 54 -999
2008-09-15 10:02:40 51°31.557 3°4.163 52.2 10.9 54 -999
2008-09-15 10:02:50 51°31.576 3°4.2 52.2 10.9 54 -999
2008-09-15 10:03:00 51°31.595 3°4.238 51.2 10.9 54 -999
2008-09-15 10:03:10 51°31.613 3°4.277 51.2 10.9 54 -999
2008-09-15 10:03:20 51°31.631 3°4.316 51.2 10.9 54 -999
2008-09-15 10:03:30 51°31.65 3°4.354 51.2 10.9 54 -999
2008-09-15 10:03:40 51°31.668 3°4.392 51.2 10.9 54 -999
2008-09-15 10:03:50 51°31.686 3°4.431 51.2 10.9 54 -999
2008-09-15 10:04:00 51°31.705 3°4.47 52.2 11 51 -999
2008-09-15 10:04:10 51°31.723 3°4.509 52.2 11 51 -999
2008-09-15 10:04:20 51°31.742 3°4.547 52.2 11 51 -999
2008-09-15 10:04:30 51°31.762 3°4.583 52.2 11 51 -999
2008-09-15 10:04:40 51°31.783 3°4.618 52.2 11 51 -999
2008-09-15 10:04:50 51°31.803 3°4.653 52.2 11 51 -999
2008-09-15 10:05:00 51°31.824 3°4.688 46.6 10.9 46 -999
2008-09-15 10:05:10 51°31.845 3°4.723 46.6 10.9 46 -999
2008-09-15 10:05:20 51°31.868 3°4.755 46.6 10.9 46 -999
2008-09-15 10:05:30 51°31.894 3°4.779 46.6 10.9 46 -999
2008-09-15 10:05:40 51°31.922 3°4.796 46.6 10.9 46 -999
2008-09-15 10:05:50 51°31.952 3°4.806 46.6 10.9 46 -999
2008-09-15 10:06:00 51°31.982 3°4.808 11.5 10.9 2 -999
2008-09-15 10:06:10 51°32.012 3°4.802 11.5 10.9 2 -999
2008-09-15 10:06:20 51°32.042 3°4.789 11.5 10.9 2 -999
2008-09-15 10:06:30 51°32.07 3°4.768 11.5 10.9 2 -999
2008-09-15 10:06:40 51°32.099 3°4.746 11.5 10.9 2 -999
2008-09-15 10:06:50 51°32.127 3°4.725 11.5 10.9 2 -999
2008-09-15 10:07:00 51°32.156 3°4.703 341 11.4 336 -999
2008-09-15 10:07:10 51°32.185 3°4.682 341 11.4 336 -999
2008-09-15 10:07:20 51°32.214 3°4.662 341 11.4 336 -999
2008-09-15 10:07:30 51°32.244 3°4.641 341 11.4 336 -999
2008-09-15 10:07:40 51°32.273 3°4.62 341 11.4 336 -999
2008-09-15 10:07:50 51°32.302 3°4.6 341 11.4 336 -999
2008-09-15 10:08:00 51°32.331 3°4.579 341.8 11.5 335 -999
2008-09-15 10:08:10 51°32.36 3°4.556 341.8 11.5 335 -999
2008-09-15 10:08:20 51°32.389 3°4.532 341.8 11.5 335 -999
2008-09-15 10:08:30 51°32.417 3°4.507 341.8 11.5 335 -999
2008-09-15 10:08:40 51°32.446 3°4.482 341.8 11.5 335 -999
2008-09-15 10:08:50 51°32.474 3°4.456 341.8 11.5 335 -999
2008-09-15 10:09:00 51°32.502 3°4.43 335.8 11.69 330 -999
2008-09-15 10:09:10 51°32.531 3°4.404 335.8 11.69 330 -999
2008-09-15 10:09:20 51°32.556 3°4.381 335.8 11.69 330 -999
2008-09-15 10:09:30 51°32.586 3°4.35 335.8 11.69 330 -999
2008-09-15 10:09:40 51°32.613 3°4.322 335.8 11.69 330 -999
2008-09-15 10:09:50 51°32.64 3°4.292 335.8 11.69 330 -999
2008-09-15 10:10:00 51°32.667 3°4.261 329.6 11.8 323 -999
2008-09-15 10:10:10 51°32.692 3°4.229 329.6 11.8 323 -999
2008-09-15 10:10:20 51°32.717 3°4.195 329.6 11.8 323 -999
2008-09-15 10:10:30 51°32.743 3°4.162 329.6 11.8 323 -999
2008-09-15 10:10:40 51°32.767 3°4.127 329.6 11.8 323 -999
2008-09-15 10:10:50 51°32.791 3°4.092 329.6 11.8 323 -999
2008-09-15 10:11:00 51°32.815 3°4.056 322.1 11.8 316 -999
2008-09-15 10:11:10 51°32.838 3°4.019 322.1 11.8 316 -999
2008-09-15 10:11:20 51°32.862 3°3.982 322.1 11.8 316 -999
2008-09-15 10:11:30 51°32.885 3°3.946 322.1 11.8 316 -999
2008-09-15 10:11:40 51°32.909 3°3.909 322.1 11.8 316 -999
2008-09-15 10:11:50 51°32.931 3°3.872 322.1 11.8 316 -999
2008-09-15 10:12:00 51°32.954 3°3.836 320.3 11.59 315 -999
2008-09-15 10:12:10 51°32.98 3°3.797 320.3 11.59 315 -999
2008-09-15 10:12:20 51°33.001 3°3.764 320.3 11.59 315 -999
2008-09-15 10:12:30 51°33.024 3°3.728 320.3 11.59 315 -999
2008-09-15 10:12:40 51°33.046 3°3.691 320.3 11.59 315 -999
2008-09-15 10:12:50 51°33.069 3°3.648 320.3 11.59 315 -999
2008-09-15 10:13:00 51°33.085 3°3.609 313.5 11.59 303 -999
2008-09-15 10:13:10 51°33.1 3°3.564 313.5 11.59 303 -999
2008-09-15 10:13:20 51°33.112 3°3.514 313.5 11.59 303 -999
2008-09-15 10:13:30 51°33.121 3°3.464 313.5 11.59 303 -999
2008-09-15 10:13:40 51°33.123 3°3.416 313.5 11.59 303 -999
2008-09-15 10:13:50 51°33.124 3°3.357 313.5 11.59 303 -999
2008-09-15 10:14:00 51°33.119 3°3.303 270.8 12.09 262 -999
2008-09-15 10:14:10 51°33.11 3°3.251 270.8 12.09 262 -999
2008-09-15 10:14:20 51°33.099 3°3.199 270.8 12.09 262 -999
2008-09-15 10:14:30 51°33.088 3°3.146 270.8 12.09 262 -999
2008-09-15 10:14:40 51°33.076 3°3.094 270.8 12.09 262 -999
2008-09-15 10:14:50 51°33.062 3°3.036 270.8 12.09 262 -999
2008-09-15 10:15:00 51°33.049 3°2.99 249.5 12.69 247 -999
2008-09-15 10:15:10 51°33.032 3°2.94 249.5 12.69 247 -999
2008-09-15 10:15:20 51°33.016 3°2.889 249.5 12.69 247 -999
2008-09-15 10:15:30 51°32.999 3°2.839 249.5 12.69 247 -999
2008-09-15 10:15:40 51°32.982 3°2.789 249.5 12.69 247 -999
2008-09-15 10:15:50 51°32.963 3°2.734 249.5 12.69 247 -999
2008-09-15 10:16:00 51°32.946 3°2.691 242.6 12.69 240 -999
2008-09-15 10:16:10 51°32.926 3°2.637 242.6 12.69 240 -999
2008-09-15 10:16:20 51°32.91 3°2.593 242.6 12.69 240 -999
2008-09-15 10:16:30 51°32.892 3°2.544 242.6 12.69 240 -999
2008-09-15 10:16:40 51°32.874 3°2.497 242.6 12.69 240 -999
2008-09-15 10:16:50 51°32.855 3°2.448 242.6 12.69 240 -999
2008-09-15 10:17:00 51°32.837 3°2.4 242.8 12.9 236 -999
2008-09-15 10:17:10 51°32.818 3°2.346 242.8 12.9 236 -999
2008-09-15 10:17:20 51°32.801 3°2.302 242.8 12.9 236 -999
2008-09-15 10:17:30 51°32.784 3°2.252 242.8 12.9 236 -999
2008-09-15 10:17:40 51°32.767 3°2.203 242.8 12.9 236 -999
2008-09-15 10:17:50 51°32.75 3°2.153 242.8 12.9 236 -999
2008-09-15 10:18:00 51°32.733 3°2.102 244.5 12.9 239 -999
2008-09-15 10:18:10 51°32.714 3°2.048 244.5 12.9 239 -999
2008-09-15 10:18:20 51°32.698 3°2 244.5 12.9 239 -999
2008-09-15 10:18:30 51°32.681 3°1.951 244.5 12.9 239 -999
2008-09-15 10:18:40 51°32.665 3°1.901 244.5 12.9 239 -999
2008-09-15 10:18:50 51°32.649 3°1.857 244.5 12.9 239 -999
2008-09-15 10:19:00 51°32.629 3°1.802 243.1 12.9 242 -999
2008-09-15 10:19:10 51°32.611 3°1.752 243.1 12.9 242 -999
2008-09-15 10:19:20 51°32.594 3°1.701 243.1 12.9 242 -999
2008-09-15 10:19:30 51°32.578 3°1.651 243.1 12.9 242 -999
2008-09-15 10:19:40 51°32.558 3°1.597 243.1 12.9 242 -999
2008-09-15 10:19:50 51°32.542 3°1.553 243.1 12.9 242 -999
2008-09-15 10:20:00 51°32.525 3°1.503 244.1 12.8 242 -999
2008-09-15 10:20:10 51°32.509 3°1.453 244.1 12.8 242 -999
2008-09-15 10:20:20 51°32.493 3°1.402 244.1 12.8 242 -999
2008-09-15 10:20:30 51°32.473 3°1.348 244.1 12.8 242 -999
2008-09-15 10:20:40 51°32.457 3°1.304 244.1 12.8 242 -999
2008-09-15 10:20:50 51°32.441 3°1.254 244.1 12.8 242 -999
2008-09-15 10:21:00 51°32.425 3°1.203 244.5 12.8 245 -999
2008-09-15 10:21:10 51°32.408 3°1.152 244.5 12.8 245 -999
2008-09-15 10:21:20 51°32.391 3°1.102 244.5 12.8 245 -999
2008-09-15 10:21:30 51°32.374 3°1.051 244.5 12.8 245 -999
2008-09-15 10:21:40 51°32.357 3°1 244.5 12.8 245 -999
2008-09-15 10:21:50 51°32.336 3°0.953 244.5 12.8 245 -999
2008-09-15 10:22:00 51°32.308 3°0.909 231 12.69 223 -999
2008-09-15 10:22:10 51°32.282 3°0.879 231 12.69 223 -999
2008-09-15 10:22:20 51°32.253 3°0.848 231 12.69 223 -999
2008-09-15 10:22:30 51°32.223 3°0.816 231 12.69 223 -999
2008-09-15 10:22:40 51°32.19 3°0.78 231 12.69 223 -999
2008-09-15 10:22:50 51°32.161 3°0.746 231 12.69 223 -999
2008-09-15 10:23:00 51°32.134 3°0.717 216.6 13.09 215 -999
2008-09-15 10:23:10 51°32.104 3°0.683 216.6 13.09 215 -999
2008-09-15 10:23:20 51°32.074 3°0.651 216.6 13.09 215 -999
2008-09-15 10:23:30 51°32.044 3°0.618 216.6 13.09 215 -999
2008-09-15 10:23:40 51°32.014 3°0.584 216.6 13.09 215 -999
2008-09-15 10:23:50 51°31.985 3°0.551 216.6 13.09 215 -999
2008-09-15 10:24:00 51°31.956 3°0.517 215.4 12.9 214 -999
2008-09-15 10:24:10 51°31.927 3°0.484 215.4 12.9 214 -999
2008-09-15 10:24:20 51°31.897 3°0.452 215.4 12.9 214 -999
2008-09-15 10:24:30 51°31.866 3°0.413 215.4 12.9 214 -999
2008-09-15 10:24:40 51°31.839 3°0.383 215.4 12.9 214 -999
2008-09-15 10:24:50 51°31.81 3°0.347 215.4 12.9 214 -999
2008-09-15 10:25:00 51°31.78 3°0.315 217.5 13.09 214 -999
2008-09-15 10:25:10 51°31.748 3°0.279 217.5 13.09 214 -999
2008-09-15 10:25:20 51°31.722 3°0.249 217.5 13.09 214 -999
2008-09-15 10:25:30 51°31.692 3°0.216 217.5 13.09 214 -999
2008-09-15 10:25:40 51°31.663 3°0.181 217.5 13.09 214 -999
2008-09-15 10:25:50 51°31.633 3°0.149 217.5 13.09 214 -999
2008-09-15 10:26:00 51°31.604 3°0.115 217.9 12.8 214 -999
2008-09-15 10:26:10 51°31.575 3°0.082 217.9 12.8 214 -999
2008-09-15 10:26:20 51°31.549 3°0.052 217.9 12.8 214 -999
2008-09-15 10:26:30 51°31.518 3°0.014 217.9 12.8 214 -999
2008-09-15 10:26:40 51°31.489 2°59.98 217.9 12.8 214 -999
2008-09-15 10:26:50 51°31.459 2°59.948 217.9 12.8 214 -999
2008-09-15 10:27:00 51°31.43 2°59.914 217.5 13 210 -999
2008-09-15 10:27:10 51°31.401 2°59.88 217.5 13 210 -999
2008-09-15 10:27:20 51°31.369 2°59.844 217.5 13 210 -999
2008-09-15 10:27:30 51°31.342 2°59.814 217.5 13 210 -999
2008-09-15 10:27:40 51°31.31 2°59.778 217.5 13 210 -999
2008-09-15 10:27:50 51°31.284 2°59.746 217.5 13 210 -999
2008-09-15 10:28:00 51°31.255 2°59.712 216.6 12.9 220 -999
2008-09-15 10:28:10 51°31.226 2°59.679 216.6 12.9 220 -999
2008-09-15 10:28:20 51°31.196 2°59.646 216.6 12.9 220 -999
2008-09-15 10:28:30 51°31.167 2°59.613 216.6 12.9 220 -999
2008-09-15 10:28:40 51°31.138 2°59.58 216.6 12.9 220 -999
2008-09-15 10:28:50 51°31.109 2°59.545 216.6 12.9 220 -999
2008-09-15 10:29:00 51°31.08 2°59.511 216.5 12.9 217 -999
2008-09-15 10:29:10 51°31.054 2°59.481 216.5 12.9 217 -999
2008-09-15 10:29:20 51°31.021 2°59.444 216.5 12.9 217 -999
2008-09-15 10:29:30 51°30.992 2°59.411 216.5 12.9 217 -999
2008-09-15 10:29:40 51°30.963 2°59.377 216.5 12.9 217 -999
2008-09-15 10:29:50 51°30.93 2°59.34 216.5 12.9 217 -999
2008-09-15 10:30:00 51°30.906 2°59.308 217.4 12.69 218 -999
2008-09-15 10:30:10 51°30.878 2°59.272 217.4 12.69 218 -999
2008-09-15 10:30:20 51°30.852 2°59.234 217.4 12.69 218 -999
2008-09-15 10:30:30 51°30.827 2°59.193 217.4 12.69 218 -999
2008-09-15 10:30:40 51°30.8 2°59.149 217.4 12.69 218 -999
2008-09-15 10:30:50 51°30.779 2°59.11 217.4 12.69 218 -999
2008-09-15 10:31:00 51°30.755 2°59.068 230.3 12.8 229 -999
2008-09-15 10:31:10 51°30.733 2°59.024 230.3 12.8 229 -999
2008-09-15 10:31:20 51°30.71 2°58.98 230.3 12.8 229 -999
2008-09-15 10:31:30 51°30.687 2°58.938 230.3 12.8 229 -999
2008-09-15 10:31:40 51°30.664 2°58.895 230.3 12.8 229 -999
2008-09-15 10:31:50 51°30.638 2°58.847 230.3 12.8 229 -999
2008-09-15 10:32:00 51°30.618 2°58.807 230 12.9 231 -999
2008-09-15 10:32:10 51°30.595 2°58.764 230 12.9 231 -999
2008-09-15 10:32:20 51°30.572 2°58.721 230 12.9 231 -999
2008-09-15 10:32:30 51°30.549 2°58.677 230 12.9 231 -999
2008-09-15 10:32:40 51°30.524 2°58.629 230 12.9 231 -999
2008-09-15 10:32:50 51°30.504 2°58.589 230 12.9 231 -999
2008-09-15 10:33:00 51°30.481 2°58.546 230.5 12.69 232 -999
2008-09-15 10:33:10 51°30.457 2°58.503 230.5 12.69 232 -999
2008-09-15 10:33:20 51°30.432 2°58.456 230.5 12.69 232 -999
2008-09-15 10:33:30 51°30.409 2°58.413 230.5 12.69 232 -999
2008-09-15 10:33:40 51°30.388 2°58.374 230.5 12.69 232 -999
2008-09-15 10:33:50 51°30.365 2°58.331 230.5 12.69 232 -999
2008-09-15 10:34:00 51°30.342 2°58.288 230.4 12.9 229 -999
2008-09-15 10:34:10 51°30.319 2°58.243 230.4 12.9 229 -999
2008-09-15 10:34:20 51°30.297 2°58.199 230.4 12.9 229 -999
2008-09-15 10:34:30 51°30.272 2°58.151 230.4 12.9 229 -999
2008-09-15 10:34:40 51°30.251 2°58.112 230.4 12.9 229 -999
2008-09-15 10:34:50 51°30.23 2°58.067 230.4 12.9 229 -999
2008-09-15 10:35:00 51°30.211 2°58.019 238 12.59 239 -999
2008-09-15 10:35:10 51°30.197 2°57.969 238 12.59 239 -999
2008-09-15 10:35:20 51°30.187 2°57.916 238 12.59 239 -999
2008-09-15 10:35:30 51°30.181 2°57.857 238 12.59 239 -999
2008-09-15 10:35:40 51°30.175 2°57.808 238 12.59 239 -999
2008-09-15 10:35:50 51°30.169 2°57.753 238 12.59 239 -999
2008-09-15 10:36:00 51°30.165 2°57.698 264.6 12.4 262 -999
2008-09-15 10:36:10 51°30.16 2°57.638 264.6 12.4 262 -999
2008-09-15 10:36:20 51°30.155 2°57.589 264.6 12.4 262 -999
2008-09-15 10:36:30 51°30.15 2°57.534 264.6 12.4 262 -999
2008-09-15 10:36:40 51°30.143 2°57.48 264.6 12.4 262 -999
2008-09-15 10:36:50 51°30.138 2°57.42 264.6 12.4 262 -999
2008-09-15 10:37:00 51°30.135 2°57.37 264.8 12.5 263 -999
2008-09-15 10:37:10 51°30.13 2°57.31 264.8 12.5 263 -999
2008-09-15 10:37:20 51°30.128 2°57.26 264.8 12.5 263 -999
2008-09-15 10:37:30 51°30.124 2°57.205 264.8 12.5 263 -999
2008-09-15 10:37:40 51°30.121 2°57.151 264.8 12.5 263 -999
2008-09-15 10:37:50 51°30.118 2°57.091 264.8 12.5 263 -999
2008-09-15 10:38:00 51°30.115 2°57.042 267.8 12.4 266 -999
2008-09-15 10:38:10 51°30.112 2°56.988 267.8 12.4 266 -999
2008-09-15 10:38:20 51°30.111 2°56.933 267.8 12.4 266 -999
2008-09-15 10:38:30 51°30.108 2°56.873 267.8 12.4 266 -999
2008-09-15 10:38:40 51°30.106 2°56.819 267.8 12.4 266 -999
2008-09-15 10:38:50 51°30.103 2°56.77 267.8 12.4 266 -999
2008-09-15 10:39:00 51°30.1 2°56.715 268.3 12.4 265 -999
2008-09-15 10:39:10 51°30.097 2°56.661 268.3 12.4 265 -999
2008-09-15 10:39:20 51°30.096 2°56.607 268.3 12.4 265 -999
2008-09-15 10:39:30 51°30.094 2°56.553 268.3 12.4 265 -999
2008-09-15 10:39:40 51°30.092 2°56.499 268.3 12.4 265 -999
2008-09-15 10:39:50 51°30.091 2°56.444 268.3 12.4 265 -999
2008-09-15 10:40:00 51°30.089 2°56.391 270.1 12.19 266 -999
2008-09-15 10:40:10 51°30.087 2°56.337 270.1 12.19 266 -999
2008-09-15 10:40:20 51°30.086 2°56.282 270.1 12.19 266 -999
2008-09-15 10:40:30 51°30.084 2°56.229 270.1 12.19 266 -999
2008-09-15 10:40:40 51°30.082 2°56.175 270.1 12.19 266 -999
2008-09-15 10:40:50 51°30.079 2°56.121 270.1 12.19 266 -999
2008-09-15 10:41:00 51°30.077 2°56.068 270 12.19 263 -999
2008-09-15 10:41:10 51°30.075 2°56.014 270 12.19 263 -999
2008-09-15 10:41:20 51°30.074 2°55.96 270 12.19 263 -999
2008-09-15 10:41:30 51°30.072 2°55.907 270 12.19 263 -999
2008-09-15 10:41:40 51°30.071 2°55.854 270 12.19 263 -999
2008-09-15 10:41:50 51°30.069 2°55.801 270 12.19 263 -999
2008-09-15 10:42:00 51°30.067 2°55.748 267.8 12 267 -999
2008-09-15 10:42:10 51°30.065 2°55.695 267.8 12 267 -999
2008-09-15 10:42:20 51°30.064 2°55.641 267.8 12 267 -999
2008-09-15 10:42:30 51°30.063 2°55.587 267.8 12 267 -999
2008-09-15 10:42:40 51°30.063 2°55.534 267.8 12 267 -999
2008-09-15 10:42:50 51°30.061 2°55.481 267.8 12 267 -999
2008-09-15 10:43:00 51°30.06 2°55.428 268.3 11.9 270 -999
2008-09-15 10:43:10 51°30.059 2°55.375 268.3 11.9 270 -999
2008-09-15 10:43:20 51°30.058 2°55.322 268.3 11.9 270 -999
2008-09-15 10:43:30 51°30.058 2°55.269 268.3 11.9 270 -999
2008-09-15 10:43:40 51°30.058 2°55.216 268.3 11.9 270 -999
2008-09-15 10:43:50 51°30.054 2°55.164 268.3 11.9 270 -999
2008-09-15 10:44:00 51°30.051 2°55.111 267.8 11.9 261 -999
2008-09-15 10:44:10 51°30.048 2°55.059 267.8 11.9 261 -999
2008-09-15 10:44:20 51°30.042 2°55.007 267.8 11.9 261 -999
2008-09-15 10:44:30 51°30.035 2°54.955 267.8 11.9 261 -999
2008-09-15 10:44:40 51°30.028 2°54.904 267.8 11.9 261 -999
2008-09-15 10:44:50 51°30.02 2°54.852 267.8 11.9 261 -999
2008-09-15 10:45:00 51°30.01 2°54.802 256.8 12 251 -999
2008-09-15 10:45:10 51°30.002 2°54.75 256.8 12 251 -999
2008-09-15 10:45:20 51°29.993 2°54.699 256.8 12 251 -999
2008-09-15 10:45:30 51°29.984 2°54.648 256.8 12 251 -999
2008-09-15 10:45:40 51°29.975 2°54.596 256.8 12 251 -999
2008-09-15 10:45:50 51°29.967 2°54.545 256.8 12 251 -999
2008-09-15 10:46:00 51°29.958 2°54.495 255 11.9 251 -999
2008-09-15 10:46:10 51°29.949 2°54.444 255 11.9 251 -999
2008-09-15 10:46:20 51°29.94 2°54.393 255 11.9 251 -999
2008-09-15 10:46:30 51°29.931 2°54.342 255 11.9 251 -999
2008-09-15 10:46:40 51°29.923 2°54.291 255 11.9 251 -999